createdAt,value
2018-07-16T00:00:24.861Z,96.00
2018-07-16T00:02:52.982Z,95.90
2018-07-16T00:05:21.118Z,95.80
2018-07-16T00:07:49.252Z,95.70
2018-07-16T00:10:17.413Z,95.50
2018-07-16T00:12:45.535Z,95.50
2018-07-16T00:15:13.658Z,95.70
2018-07-16T00:17:41.800Z,95.30
2018-07-16T00:20:09.896Z,95.00
2018-07-16T00:22:38.015Z,94.60
2018-07-16T00:25:06.275Z,94.50
2018-07-16T00:27:34.393Z,94.50
2018-07-16T00:30:02.516Z,94.50
2018-07-16T00:32:30.630Z,94.40
2018-07-16T00:34:58.763Z,94.20
2018-07-16T00:37:26.898Z,94.00
2018-07-16T00:39:54.993Z,93.90
2018-07-16T00:42:23.127Z,93.90
2018-07-16T00:44:51.263Z,93.90
2018-07-16T00:47:19.374Z,94.10
2018-07-16T00:49:47.489Z,93.90
2018-07-16T00:52:15.618Z,94.00
2018-07-16T00:54:43.746Z,94.30
2018-07-16T00:57:11.869Z,94.50
2018-07-16T01:02:07.897Z,95.60
2018-07-16T01:04:35.998Z,95.80
2018-07-16T01:07:04.150Z,95.90
2018-07-16T01:09:32.276Z,95.90
2018-07-16T01:12:00.497Z,96.00
2018-07-16T01:14:28.619Z,95.40
2018-07-16T01:16:56.730Z,95.00
2018-07-16T01:19:24.862Z,95.00
2018-07-16T01:21:52.973Z,95.20
2018-07-16T01:24:21.079Z,95.60
2018-07-16T01:26:49.237Z,96.20
2018-07-16T01:29:17.365Z,96.50
2018-07-16T01:31:45.468Z,96.90
2018-07-16T01:34:13.605Z,96.60
2018-07-16T01:36:41.734Z,96.70
2018-07-16T01:39:09.859Z,97.30
2018-07-16T01:41:38.024Z,97.20
2018-07-16T01:44:06.143Z,97.10
2018-07-16T01:46:34.264Z,97.10
2018-07-16T01:49:02.418Z,97.30
2018-07-16T01:51:30.540Z,97.50
2018-07-16T01:53:58.648Z,97.60
2018-07-16T01:56:26.785Z,97.70
2018-07-16T01:58:54.990Z,97.60
2018-07-16T02:01:23.132Z,98.10
2018-07-16T02:03:51.253Z,98.20
2018-07-16T02:06:19.389Z,98.20
2018-07-16T02:08:47.501Z,97.90
2018-07-16T02:11:15.603Z,97.50
2018-07-16T02:13:43.711Z,97.60
2018-07-16T02:16:11.827Z,97.00
2018-07-16T02:18:40.821Z,96.60
2018-07-16T02:21:08.950Z,96.40
2018-07-16T02:23:37.031Z,96.40
2018-07-16T02:26:05.131Z,96.30
2018-07-16T02:28:33.251Z,96.30
2018-07-16T02:31:01.367Z,96.60
2018-07-16T02:33:29.467Z,96.80
2018-07-16T02:35:57.587Z,96.90
2018-07-16T02:38:25.701Z,96.90
2018-07-16T02:40:53.811Z,97.30
2018-07-16T02:43:21.944Z,97.70
2018-07-16T02:45:50.059Z,98.20
2018-07-16T02:48:18.194Z,98.90
2018-07-16T02:50:46.314Z,99.20
2018-07-16T02:53:14.425Z,99.60
2018-07-16T02:55:42.575Z,99.90
2018-07-16T02:58:10.688Z,99.90
2018-07-16T03:00:38.831Z,99.90
2018-07-16T03:03:06.930Z,99.90
2018-07-16T03:05:35.049Z,99.90
2018-07-16T03:08:03.178Z,99.90
2018-07-16T03:10:31.307Z,99.90
2018-07-16T03:12:59.462Z,99.90
2018-07-16T03:15:27.586Z,99.90
2018-07-16T03:17:55.729Z,99.90
2018-07-16T03:20:23.837Z,99.90
2018-07-16T03:22:51.957Z,99.90
2018-07-16T03:25:20.077Z,99.90
2018-07-16T03:27:48.235Z,99.90
2018-07-16T03:30:16.334Z,99.90
2018-07-16T03:32:44.471Z,99.90
2018-07-16T03:35:12.647Z,99.90
2018-07-16T03:37:40.764Z,99.90
2018-07-16T03:40:08.889Z,99.90
2018-07-16T03:42:37.019Z,99.90
2018-07-16T03:47:33.271Z,99.90
2018-07-16T03:50:01.402Z,99.90
2018-07-16T03:52:29.554Z,99.90
2018-07-16T03:54:57.654Z,99.90
2018-07-16T03:57:25.772Z,99.90
2018-07-16T03:59:53.919Z,99.90
2018-07-16T04:02:22.030Z,99.90
2018-07-16T04:04:50.148Z,99.90
2018-07-16T04:07:18.249Z,99.90
2018-07-16T04:09:46.382Z,99.90
2018-07-16T04:12:14.500Z,99.90
2018-07-16T04:14:42.625Z,99.90
2018-07-16T04:17:10.758Z,99.90
2018-07-16T04:19:38.861Z,99.90
2018-07-16T04:22:07.166Z,99.90
2018-07-16T04:24:35.267Z,99.90
2018-07-16T04:27:03.388Z,99.90
2018-07-16T04:29:31.509Z,99.90
2018-07-16T04:31:59.613Z,99.90
2018-07-16T04:34:27.734Z,99.90
2018-07-16T04:36:55.849Z,99.90
2018-07-16T04:39:23.979Z,99.90
2018-07-16T04:41:52.098Z,99.90
2018-07-16T04:44:20.194Z,99.90
2018-07-16T05:30:28.614Z,99.90
2018-07-16T05:32:56.746Z,99.90
2018-07-16T05:35:24.871Z,99.90
2018-07-16T05:37:53.035Z,99.70
2018-07-16T05:40:21.207Z,99.80
2018-07-16T05:42:49.365Z,99.90
2018-07-16T05:45:17.506Z,99.90
2018-07-16T05:47:45.663Z,99.90
2018-07-16T05:50:13.830Z,99.90
2018-07-16T05:52:42.088Z,99.90
2018-07-16T05:55:10.221Z,99.90
2018-07-16T05:57:38.359Z,99.90
2018-07-16T06:00:06.575Z,99.50
2018-07-16T06:05:02.899Z,98.90
2018-07-16T06:07:31.107Z,98.80
2018-07-16T06:12:27.241Z,97.70
2018-07-16T06:14:55.382Z,97.80
2018-07-16T06:17:23.555Z,97.50
2018-07-16T06:19:51.762Z,96.70
2018-07-16T06:22:19.893Z,96.00
2018-07-16T06:24:48.026Z,95.40
2018-07-16T06:27:16.461Z,94.70
2018-07-16T06:29:44.670Z,94.10
2018-07-16T06:32:12.902Z,93.60
2018-07-16T06:34:41.030Z,93.50
2018-07-16T06:37:09.184Z,93.10
2018-07-16T06:39:37.826Z,92.10
2018-07-16T06:42:05.922Z,91.60
2018-07-16T06:44:34.290Z,90.30
2018-07-16T06:47:02.398Z,89.00
2018-07-16T06:49:30.519Z,88.20
2018-07-16T06:51:58.651Z,85.80
2018-07-16T06:54:26.783Z,85.00
2018-07-16T06:56:54.895Z,83.10
2018-07-16T06:59:23.077Z,80.40
2018-07-16T07:01:51.197Z,75.90
2018-07-16T07:04:19.356Z,72.10
2018-07-16T07:06:47.479Z,70.30
2018-07-16T07:09:15.611Z,68.90
2018-07-16T07:11:43.738Z,68.60
2018-07-16T07:14:11.863Z,69.20
2018-07-16T07:16:39.985Z,68.10
2018-07-16T07:19:08.198Z,65.60
2018-07-16T07:21:36.283Z,64.20
2018-07-16T07:24:04.424Z,64.00
2018-07-16T07:26:32.526Z,62.80
2018-07-16T07:29:00.653Z,60.20
2018-07-16T07:31:28.787Z,59.60
2018-07-16T07:33:56.930Z,59.00
2018-07-16T07:36:25.038Z,58.70
2018-07-16T07:38:53.143Z,57.90
2018-07-16T07:41:21.245Z,55.60
2018-07-16T07:43:49.375Z,54.70
2018-07-16T07:46:17.467Z,54.70
2018-07-16T07:48:45.606Z,53.80
2018-07-16T07:51:13.722Z,53.00
2018-07-16T07:53:41.835Z,52.10
2018-07-16T07:56:09.958Z,51.70
2018-07-16T07:58:38.083Z,51.30
2018-07-16T08:01:07.098Z,51.30
2018-07-16T08:03:35.232Z,51.60
2018-07-16T08:06:05.370Z,51.20
2018-07-16T08:08:33.946Z,50.80
2018-07-16T08:11:03.546Z,51.10
2018-07-16T08:13:32.111Z,50.60
2018-07-16T08:16:00.264Z,51.60
2018-07-16T08:18:28.476Z,52.30
2018-07-16T08:20:56.711Z,53.40
2018-07-16T08:23:24.910Z,52.10
2018-07-16T08:25:53.036Z,51.90
2018-07-16T08:28:21.288Z,51.00
2018-07-16T08:30:49.743Z,51.20
2018-07-16T08:33:17.845Z,50.10
2018-07-16T08:35:45.985Z,49.90
2018-07-16T08:38:14.123Z,49.80
2018-07-16T08:40:42.218Z,50.00
2018-07-16T08:43:10.390Z,49.30
2018-07-16T08:45:38.511Z,48.90
2018-07-16T08:48:06.628Z,47.50
2018-07-16T08:50:34.750Z,46.90
2018-07-16T08:53:02.865Z,45.70
2018-07-16T08:55:30.991Z,46.50
2018-07-16T08:57:59.108Z,44.40
2018-07-16T09:00:27.223Z,44.10
2018-07-16T09:02:55.345Z,45.40
2018-07-16T09:05:23.474Z,44.60
2018-07-16T09:07:51.617Z,46.00
2018-07-16T09:10:19.738Z,45.00
2018-07-16T09:12:47.866Z,45.10
2018-07-16T09:15:15.945Z,44.40
2018-07-16T09:17:44.084Z,42.10
2018-07-16T09:20:12.212Z,41.60
2018-07-16T09:22:40.326Z,41.80
2018-07-16T09:25:08.527Z,42.70
2018-07-16T09:27:36.646Z,41.50
2018-07-16T09:30:04.976Z,41.20
2018-07-16T09:32:33.145Z,39.70
2018-07-16T09:35:01.202Z,40.60
2018-07-16T09:37:29.330Z,42.70
2018-07-16T09:39:57.518Z,43.70
2018-07-16T09:42:25.609Z,42.90
2018-07-16T09:44:53.745Z,44.80
2018-07-16T09:47:21.862Z,43.20
2018-07-16T09:49:50.019Z,41.60
2018-07-16T09:52:18.126Z,40.10
2018-07-16T09:54:46.241Z,40.00
2018-07-16T09:59:49.066Z,38.50
2018-07-16T10:02:17.846Z,39.10
2018-07-16T10:04:46.754Z,39.30
2018-07-16T10:09:42.782Z,38.20
2018-07-16T10:12:10.909Z,37.40
2018-07-16T10:14:39.067Z,38.30
2018-07-16T10:17:08.027Z,37.50
2018-07-16T10:19:36.144Z,38.00
2018-07-16T10:22:04.270Z,35.70
2018-07-16T10:24:32.417Z,34.60
2018-07-16T10:27:00.568Z,35.40
2018-07-16T10:29:28.878Z,33.50
2018-07-16T10:31:57.070Z,32.90
2018-07-16T10:34:25.266Z,33.70
2018-07-16T10:36:53.343Z,33.60
2018-07-16T10:39:21.521Z,33.20
2018-07-16T10:41:49.623Z,33.20
2018-07-16T10:44:17.737Z,33.90
2018-07-16T10:46:45.885Z,34.70
2018-07-16T10:49:14.046Z,35.10
2018-07-16T10:51:42.178Z,33.80
2018-07-16T10:54:10.294Z,36.30
2018-07-16T10:56:38.433Z,39.40
2018-07-16T10:59:06.545Z,40.90
2018-07-16T11:01:34.650Z,42.60
2018-07-16T11:04:02.762Z,42.90
2018-07-16T11:06:30.894Z,41.60
2018-07-16T11:08:59.042Z,40.10
2018-07-16T11:11:27.170Z,38.10
2018-07-16T11:16:23.218Z,37.20
2018-07-16T11:18:51.319Z,37.20
2018-07-16T11:21:19.454Z,37.30
2018-07-16T11:23:47.569Z,36.90
2018-07-16T11:26:15.762Z,37.80
2018-07-16T11:28:43.895Z,39.00
2018-07-16T11:31:12.048Z,39.20
2018-07-16T11:33:40.275Z,38.60
2018-07-16T11:36:08.210Z,38.50
2018-07-16T11:38:36.314Z,37.80
2018-07-16T11:41:04.762Z,37.60
2018-07-16T11:43:32.906Z,36.70
2018-07-16T11:46:01.107Z,36.50
2018-07-16T11:48:29.222Z,35.80
2018-07-16T11:50:57.407Z,36.00
2018-07-16T11:53:25.523Z,34.70
2018-07-16T11:55:53.655Z,34.10
2018-07-16T11:58:21.836Z,33.40
2018-07-16T12:00:49.955Z,33.40
2018-07-16T12:03:18.091Z,33.20
2018-07-16T12:05:46.260Z,34.40
2018-07-16T12:08:14.400Z,34.70
2018-07-16T12:10:42.509Z,34.00
2018-07-16T12:13:10.685Z,34.20
2018-07-16T12:15:38.941Z,35.60
2018-07-16T12:18:07.053Z,34.10
2018-07-16T12:20:35.219Z,33.30
2018-07-16T12:23:03.322Z,33.00
2018-07-16T12:25:31.458Z,32.90
2018-07-16T12:27:59.621Z,32.80
2018-07-16T12:30:27.773Z,33.20
2018-07-16T12:32:56.298Z,32.40
2018-07-16T12:35:24.335Z,31.80
2018-07-16T12:37:52.467Z,32.40
2018-07-16T12:40:20.597Z,33.70
2018-07-16T12:42:48.806Z,35.10
2018-07-16T12:45:17.784Z,35.90
2018-07-16T12:47:45.874Z,36.60
2018-07-16T12:50:14.034Z,37.90
2018-07-16T12:52:42.159Z,38.50
2018-07-16T12:55:10.294Z,37.00
2018-07-16T12:57:38.422Z,35.70
2018-07-16T13:00:06.767Z,35.90
2018-07-16T13:02:34.926Z,36.20
2018-07-16T13:05:03.072Z,34.00
2018-07-16T13:07:31.229Z,33.20
2018-07-16T13:09:59.355Z,32.30
2018-07-16T13:14:55.341Z,31.20
2018-07-16T13:17:23.447Z,31.60
2018-07-16T13:19:51.654Z,31.20
2018-07-16T13:22:19.753Z,32.70
2018-07-16T13:24:47.897Z,30.60
2018-07-16T13:27:16.018Z,29.80
2018-07-16T13:29:44.176Z,29.50
2018-07-16T13:32:12.389Z,29.00
2018-07-16T13:34:40.522Z,29.80
2018-07-16T13:37:08.682Z,29.10
2018-07-16T13:42:04.681Z,28.20
2018-07-16T13:44:32.801Z,27.80
2018-07-16T13:47:00.906Z,28.00
2018-07-16T13:49:29.074Z,27.80
2018-07-16T13:51:57.173Z,29.20
2018-07-16T13:54:25.315Z,29.70
2018-07-16T13:56:53.493Z,30.60
2018-07-16T13:59:21.595Z,30.00
2018-07-16T14:01:49.781Z,29.20
2018-07-16T14:04:17.897Z,28.60
2018-07-16T14:06:47.034Z,28.60
2018-07-16T14:09:15.186Z,28.40
2018-07-16T14:11:43.299Z,29.40
2018-07-16T14:14:17.465Z,30.00
2018-07-16T14:16:45.669Z,30.70
2018-07-16T14:19:13.807Z,29.90
2018-07-16T14:21:41.994Z,31.20
2018-07-16T14:24:10.114Z,31.40
2018-07-16T14:26:38.235Z,30.80
2018-07-16T14:29:06.466Z,29.90
2018-07-16T14:31:34.620Z,29.40
2018-07-16T14:34:02.734Z,27.80
2018-07-16T14:36:30.862Z,27.80
2018-07-16T14:38:58.987Z,27.90
2018-07-16T14:41:27.144Z,28.20
2018-07-16T14:43:55.295Z,29.50
2018-07-16T14:46:23.470Z,30.00
2018-07-16T14:48:51.619Z,31.00
2018-07-16T14:51:19.763Z,30.00
2018-07-16T14:53:47.925Z,29.20
2018-07-16T14:56:16.018Z,28.50
2018-07-16T14:58:44.135Z,27.90
2018-07-16T15:01:12.285Z,27.10
2018-07-16T15:03:40.405Z,28.40
2018-07-16T15:06:08.626Z,27.50
2018-07-16T15:08:36.795Z,27.40
2018-07-16T15:11:04.890Z,28.00
2018-07-16T15:13:33.061Z,26.90
2018-07-16T15:16:01.307Z,26.40
2018-07-16T15:18:29.415Z,26.60
2018-07-16T15:20:57.738Z,26.60
2018-07-16T15:23:25.659Z,26.80
2018-07-16T15:25:53.961Z,26.90
2018-07-16T15:28:22.225Z,26.50
2018-07-16T15:30:50.362Z,26.40
2018-07-16T15:33:18.506Z,26.60
2018-07-16T15:35:46.724Z,26.20
2018-07-16T15:38:14.738Z,26.10
2018-07-16T15:40:42.920Z,26.40
2018-07-16T15:45:38.967Z,26.00
2018-07-16T15:48:07.159Z,26.00
2018-07-16T15:50:35.203Z,25.40
2018-07-16T15:53:03.353Z,25.90
2018-07-16T15:55:31.511Z,25.60
2018-07-16T15:57:59.627Z,25.60
2018-07-16T16:00:27.722Z,25.60
2018-07-16T16:02:55.986Z,25.90
2018-07-16T16:05:24.042Z,25.90
2018-07-16T16:07:52.178Z,26.00
2018-07-16T16:10:20.331Z,26.40
2018-07-16T16:12:48.462Z,26.70
2018-07-16T16:15:16.610Z,27.20
2018-07-16T16:17:44.689Z,27.60
2018-07-16T16:20:12.891Z,27.90
2018-07-16T16:22:41.127Z,27.80
2018-07-16T16:25:09.090Z,28.00
2018-07-16T16:27:37.325Z,28.30
2018-07-16T16:30:06.160Z,27.90
2018-07-16T16:32:34.416Z,28.10
2018-07-16T16:35:02.530Z,28.10
2018-07-16T16:37:30.703Z,27.90
2018-07-16T16:39:59.741Z,28.10
2018-07-16T16:42:29.315Z,28.30
2018-07-16T16:44:58.021Z,28.90
2018-07-16T16:47:26.571Z,28.90
2018-07-16T16:49:54.768Z,29.90
2018-07-16T16:52:22.951Z,30.60
2018-07-16T16:54:51.088Z,31.90
2018-07-16T16:57:19.226Z,32.20
2018-07-16T16:59:47.375Z,32.80
2018-07-16T17:02:15.536Z,32.90
2018-07-16T17:04:43.657Z,33.90
2018-07-16T17:07:11.775Z,34.50
2018-07-16T17:09:39.910Z,34.90
2018-07-16T17:12:08.104Z,35.70
2018-07-16T17:14:36.309Z,35.90
2018-07-16T17:17:04.589Z,36.70
2018-07-16T17:19:32.842Z,37.50
2018-07-16T17:22:01.025Z,38.10
2018-07-16T17:24:29.128Z,39.00
2018-07-16T17:26:57.301Z,40.10
2018-07-16T17:29:25.446Z,40.30
2018-07-16T17:31:53.652Z,40.90
2018-07-16T17:34:21.743Z,41.00
2018-07-16T17:36:49.894Z,41.30
2018-07-16T17:39:18.003Z,41.50
2018-07-16T17:41:46.117Z,41.70
2018-07-16T17:44:14.273Z,42.10
2018-07-16T17:46:42.385Z,42.10
2018-07-16T17:49:10.515Z,41.90
2018-07-16T17:51:38.645Z,42.30
2018-07-16T17:54:09.662Z,42.60
2018-07-16T17:56:37.832Z,42.60
2018-07-16T17:59:07.200Z,42.70
2018-07-16T18:01:35.368Z,43.00
2018-07-16T18:04:03.476Z,43.10
2018-07-16T18:06:31.597Z,43.40
2018-07-16T18:08:59.725Z,43.60
2018-07-16T18:11:27.838Z,44.10
2018-07-16T18:16:23.859Z,44.20
2018-07-16T18:18:51.967Z,44.20
2018-07-16T18:21:20.130Z,44.90
2018-07-16T18:26:16.247Z,46.70
2018-07-16T18:28:44.391Z,46.90
2018-07-16T18:31:12.588Z,47.30
2018-07-16T18:33:40.793Z,48.20
2018-07-16T18:36:08.940Z,48.50
2018-07-16T18:38:37.173Z,49.10
2018-07-16T18:41:05.289Z,49.70
2018-07-16T18:43:33.429Z,50.10
2018-07-16T18:46:03.272Z,50.50
2018-07-16T18:48:31.751Z,50.80
2018-07-16T18:50:59.929Z,51.30
2018-07-16T18:53:28.156Z,51.60
2018-07-16T18:55:56.743Z,52.00
2018-07-16T18:58:24.954Z,52.30
2018-07-16T19:00:53.146Z,52.70
2018-07-16T19:03:21.275Z,52.90
2018-07-16T19:05:49.398Z,53.00
2018-07-16T19:08:17.570Z,53.20
2018-07-16T19:10:45.790Z,53.00
2018-07-16T19:13:13.964Z,53.30
2018-07-16T19:15:42.139Z,53.70
2018-07-16T19:18:10.238Z,53.90
2018-07-16T19:20:38.507Z,54.70
2018-07-16T19:23:06.715Z,55.30
2018-07-16T19:25:34.963Z,56.00
2018-07-16T19:28:03.071Z,55.70
2018-07-16T19:30:31.331Z,55.90
2018-07-16T19:32:59.428Z,56.00
2018-07-16T19:35:27.752Z,56.20
2018-07-16T19:37:55.954Z,56.60
2018-07-16T19:40:24.151Z,57.10
2018-07-16T19:42:52.259Z,57.70
2018-07-16T19:45:20.387Z,58.00
2018-07-16T19:47:48.585Z,58.40
2018-07-16T19:50:16.702Z,59.10
2018-07-16T19:52:44.897Z,59.70
2018-07-16T19:55:13.201Z,60.60
2018-07-16T19:57:41.328Z,60.70
2018-07-16T20:00:09.431Z,61.00
2018-07-16T20:02:37.755Z,61.70
2018-07-16T20:10:02.169Z,62.80
2018-07-16T20:12:32.182Z,66.40
2018-07-16T20:15:01.408Z,67.50
2018-07-16T20:17:29.725Z,68.00
2018-07-16T20:19:58.339Z,68.40
2018-07-16T20:22:26.749Z,69.10
2018-07-16T20:24:54.945Z,69.60
2018-07-16T20:27:23.038Z,70.10
2018-07-16T20:29:51.578Z,71.00
2018-07-16T20:32:19.768Z,71.70
2018-07-16T20:34:47.934Z,72.20
2018-07-16T20:37:16.054Z,72.40
2018-07-16T20:39:44.488Z,73.00
2018-07-16T20:42:12.610Z,74.20
2018-07-16T20:44:40.753Z,75.00
2018-07-16T20:47:08.873Z,75.70
2018-07-16T20:49:36.997Z,76.90
2018-07-16T20:52:05.175Z,78.40
2018-07-16T20:54:33.296Z,79.60
2018-07-16T20:57:01.479Z,79.90
2018-07-16T20:59:29.639Z,80.10
2018-07-16T21:01:57.798Z,80.40
2018-07-16T21:04:25.980Z,81.80
2018-07-16T21:06:54.126Z,82.80
2018-07-16T21:09:22.291Z,83.90
2018-07-16T21:11:50.414Z,84.80
2018-07-16T21:14:18.537Z,85.20
2018-07-16T21:16:46.649Z,86.70
2018-07-16T21:19:14.927Z,87.80
2018-07-16T21:21:43.111Z,89.10
2018-07-16T21:24:11.231Z,89.70
2018-07-16T21:26:39.380Z,90.00
2018-07-16T21:29:08.443Z,90.10
2018-07-16T21:31:37.234Z,90.20
2018-07-16T21:34:05.398Z,90.50
2018-07-16T21:36:34.520Z,90.90
2018-07-16T21:39:02.755Z,91.20
2018-07-16T21:41:30.930Z,91.50
2018-07-16T21:43:59.145Z,91.90
2018-07-16T21:46:27.436Z,92.20
2018-07-16T21:48:55.754Z,92.30
2018-07-16T21:51:23.928Z,92.10
2018-07-16T21:53:52.091Z,92.30
2018-07-16T21:56:20.238Z,92.90
2018-07-16T21:58:48.463Z,93.40
2018-07-16T22:01:16.596Z,93.70
2018-07-16T22:03:44.919Z,93.80
2018-07-16T22:06:13.064Z,94.10
2018-07-16T22:08:53.549Z,94.40
2018-07-16T22:11:21.738Z,94.50
2018-07-16T22:13:49.848Z,94.60
2018-07-16T22:16:18.077Z,95.30
2018-07-16T22:18:46.396Z,95.30
2018-07-16T22:21:14.556Z,95.70
2018-07-16T22:23:42.714Z,96.10
2018-07-16T22:26:10.865Z,96.20
2018-07-16T22:28:39.063Z,96.30
2018-07-16T22:31:07.224Z,96.40
2018-07-16T22:33:35.386Z,96.60
2018-07-16T22:36:03.542Z,96.80
2018-07-16T22:38:31.717Z,97.00
2018-07-16T22:40:59.881Z,97.20
2018-07-16T22:46:59.554Z,97.20
2018-07-16T22:49:27.705Z,97.30
2018-07-16T22:51:55.877Z,97.50
2018-07-16T22:54:24.053Z,97.70
2018-07-16T22:56:52.310Z,98.00
2018-07-16T22:59:20.786Z,98.20
2018-07-16T23:01:48.997Z,98.50
2018-07-16T23:04:17.140Z,98.60
2018-07-16T23:06:45.558Z,98.80
2018-07-16T23:09:13.738Z,99.00
2018-07-16T23:11:41.843Z,99.10
2018-07-16T23:14:10.029Z,99.20
2018-07-16T23:16:38.177Z,99.20
2018-07-16T23:19:06.417Z,99.20
2018-07-16T23:21:34.583Z,99.00
2018-07-16T23:24:03.069Z,99.40
2018-07-16T23:26:31.237Z,99.60
2018-07-16T23:28:59.472Z,99.70
2018-07-16T23:31:27.602Z,99.90
2018-07-16T23:33:55.792Z,99.90
2018-07-16T23:36:23.965Z,99.90
2018-07-16T23:41:20.081Z,99.70
2018-07-16T23:43:48.264Z,99.70
2018-07-16T23:46:16.421Z,99.60
2018-07-16T23:48:44.617Z,99.60
2018-07-16T23:51:12.796Z,99.60
2018-07-16T23:53:40.979Z,99.70
2018-07-16T23:56:09.167Z,99.90
2018-07-16T23:58:37.333Z,99.90
